createdAt,value
2018-12-12T00:00:51.170Z,1.32
2018-12-12T00:03:21.553Z,1.31
2018-12-12T00:05:52.191Z,1.35
2018-12-12T00:08:22.159Z,1.34
2018-12-12T00:10:52.049Z,1.29
2018-12-12T00:13:21.943Z,1.32
2018-12-12T00:15:52.003Z,1.34
2018-12-12T00:18:21.990Z,1.32
2018-12-12T00:20:51.964Z,1.29
2018-12-12T00:23:22.209Z,1.27
2018-12-12T00:25:52.021Z,1.21
2018-12-12T00:28:21.892Z,1.21
2018-12-12T00:30:51.834Z,1.21
2018-12-12T00:33:21.726Z,1.11
2018-12-12T00:35:51.771Z,1.08
2018-12-12T00:38:21.577Z,1.03
2018-12-12T00:40:51.642Z,1.07
2018-12-12T00:43:21.425Z,1.05
2018-12-12T00:45:51.419Z,1.06
2018-12-12T00:48:21.266Z,1.07
2018-12-12T00:50:51.178Z,1.12
2018-12-12T00:53:21.786Z,1.20
2018-12-12T00:55:52.057Z,1.25
2018-12-12T00:58:21.953Z,1.28
2018-12-12T01:00:51.777Z,1.22
2018-12-12T01:03:21.650Z,1.29
2018-12-12T01:05:51.561Z,1.28
2018-12-12T01:08:21.489Z,1.35
2018-12-12T01:10:56.532Z,1.38
2018-12-12T01:13:26.449Z,1.40
2018-12-12T01:15:56.379Z,1.34
2018-12-12T01:18:26.763Z,1.35
2018-12-12T01:20:56.715Z,1.35
2018-12-12T01:23:26.865Z,1.31
2018-12-12T01:25:56.688Z,1.39
2018-12-12T01:28:26.523Z,1.41
2018-12-12T01:30:56.382Z,1.41
2018-12-12T01:33:26.371Z,1.45
2018-12-12T01:35:56.173Z,1.43
2018-12-12T01:38:25.974Z,1.49
2018-12-12T01:40:55.826Z,1.54
2018-12-12T01:43:25.692Z,1.61
2018-12-12T01:45:55.680Z,1.56
2018-12-12T01:48:25.497Z,1.61
2018-12-12T01:50:55.443Z,1.62
2018-12-12T01:53:25.846Z,1.44
2018-12-12T01:55:55.658Z,1.45
2018-12-12T01:58:25.485Z,1.44
2018-12-12T02:00:55.356Z,1.49
2018-12-12T02:03:25.577Z,1.43
2018-12-12T02:05:55.472Z,1.44
2018-12-12T02:08:26.428Z,1.48
2018-12-12T02:10:56.489Z,1.54
2018-12-12T02:13:34.180Z,1.53
2018-12-12T02:16:05.302Z,1.57
2018-12-12T02:18:36.884Z,1.50
2018-12-12T02:21:06.763Z,1.54
2018-12-12T02:23:36.722Z,1.50
2018-12-12T02:26:06.684Z,1.48
2018-12-12T02:28:36.625Z,1.46
2018-12-12T02:31:06.421Z,1.39
2018-12-12T02:33:36.326Z,1.41
2018-12-12T02:36:06.176Z,1.42
2018-12-12T02:38:36.052Z,1.46
2018-12-12T02:41:06.000Z,1.30
2018-12-12T02:43:35.800Z,1.33
2018-12-12T02:46:05.741Z,1.42
2018-12-12T02:48:35.632Z,1.44
2018-12-12T02:51:05.530Z,1.46
2018-12-12T02:53:35.434Z,1.45
2018-12-12T02:56:05.334Z,1.39
2018-12-12T02:58:35.156Z,1.40
2018-12-12T03:01:04.939Z,1.36
2018-12-12T03:03:34.918Z,1.43
2018-12-12T03:06:04.937Z,1.48
2018-12-12T03:08:34.930Z,1.50
2018-12-12T03:11:05.256Z,1.44
2018-12-12T03:13:35.084Z,1.38
2018-12-12T03:16:04.901Z,1.42
2018-12-12T03:18:34.749Z,1.30
2018-12-12T03:21:04.697Z,1.31
2018-12-12T03:23:34.731Z,1.28
2018-12-12T03:26:04.604Z,1.39
2018-12-12T03:28:34.424Z,1.36
2018-12-12T03:31:04.465Z,1.33
2018-12-12T03:33:34.503Z,1.38
2018-12-12T03:36:04.496Z,1.41
2018-12-12T03:38:34.397Z,1.46
2018-12-12T03:41:05.032Z,1.46
2018-12-12T03:43:34.953Z,1.36
2018-12-12T03:46:04.969Z,1.34
2018-12-12T03:48:34.771Z,1.42
2018-12-12T03:51:04.988Z,1.44
2018-12-12T03:53:34.929Z,1.51
2018-12-12T03:56:05.010Z,1.51
2018-12-12T03:58:34.959Z,1.49
2018-12-12T04:01:04.831Z,1.49
2018-12-12T04:03:34.643Z,1.54
2018-12-12T04:06:04.705Z,1.35
2018-12-12T04:08:34.566Z,1.37
2018-12-12T04:11:04.920Z,1.37
2018-12-12T04:13:34.798Z,1.27
2018-12-12T04:16:04.797Z,1.39
2018-12-12T04:18:34.628Z,1.38
2018-12-12T04:21:04.440Z,1.46
2018-12-12T04:23:34.256Z,1.37
2018-12-12T04:26:04.279Z,1.46
2018-12-12T04:28:34.074Z,1.54
2018-12-12T04:31:04.044Z,1.60
2018-12-12T04:33:33.868Z,1.58
2018-12-12T04:36:03.787Z,1.63
2018-12-12T04:38:33.912Z,1.50
2018-12-12T04:41:03.741Z,1.50
2018-12-12T04:43:33.684Z,1.55
2018-12-12T04:46:03.617Z,1.53
2018-12-12T04:48:33.524Z,1.47
2018-12-12T04:51:03.360Z,1.54
2018-12-12T04:53:33.232Z,1.58
2018-12-12T04:56:03.132Z,1.42
2018-12-12T04:58:32.952Z,1.51
2018-12-12T05:01:02.796Z,1.37
2018-12-12T05:03:32.647Z,1.44
2018-12-12T05:06:02.635Z,1.47
2018-12-12T05:08:33.015Z,1.36
2018-12-12T05:11:02.924Z,1.35
2018-12-12T05:13:32.809Z,1.36
2018-12-12T05:16:02.780Z,1.34
2018-12-12T05:18:32.669Z,1.22
2018-12-12T05:21:02.548Z,1.23
2018-12-12T05:23:32.380Z,1.27
2018-12-12T05:26:02.306Z,1.30
2018-12-12T05:28:32.108Z,1.37
2018-12-12T05:31:01.974Z,1.21
2018-12-12T05:33:31.820Z,1.20
2018-12-12T05:36:01.786Z,1.22
2018-12-12T05:38:31.590Z,1.18
2018-12-12T05:41:01.466Z,1.19
2018-12-12T05:43:31.272Z,1.11
2018-12-12T05:46:01.641Z,1.06
2018-12-12T05:48:31.512Z,1.11
2018-12-12T05:51:01.337Z,1.00
2018-12-12T05:53:31.221Z,1.09
2018-12-12T05:56:02.626Z,1.04
2018-12-12T05:58:32.728Z,1.00
2018-12-12T06:01:02.776Z,1.07
2018-12-12T06:03:33.764Z,1.11
2018-12-12T06:06:03.794Z,1.17
2018-12-12T06:08:33.692Z,1.15
2018-12-12T06:11:03.576Z,1.08
2018-12-12T06:13:33.421Z,1.10
2018-12-12T06:16:03.677Z,1.17
2018-12-12T06:18:33.527Z,1.05
2018-12-12T06:21:03.366Z,1.05
2018-12-12T06:23:33.259Z,1.07
2018-12-12T06:26:03.090Z,1.16
2018-12-12T06:28:32.982Z,1.14
2018-12-12T06:31:02.805Z,1.12
2018-12-12T06:33:32.732Z,1.13
2018-12-12T06:36:03.263Z,1.09
2018-12-12T06:38:33.151Z,1.01
2018-12-12T06:41:03.216Z,1.04
2018-12-12T06:43:33.089Z,1.02
2018-12-12T06:46:03.003Z,1.02
2018-12-12T06:48:32.814Z,1.06
2018-12-12T06:51:02.713Z,1.03
2018-12-12T06:53:32.674Z,1.03
2018-12-12T06:56:02.555Z,1.09
2018-12-12T06:58:32.497Z,1.21
2018-12-12T07:01:02.392Z,1.11
2018-12-12T07:03:32.306Z,1.09
2018-12-12T07:06:02.196Z,1.09
2018-12-12T07:08:32.037Z,1.10
2018-12-12T07:11:01.901Z,1.10
2018-12-12T07:13:35.666Z,1.08
2018-12-12T07:16:03.577Z,0.99
2018-12-12T07:18:33.510Z,1.06
2018-12-12T07:21:03.339Z,1.10
2018-12-12T07:23:33.151Z,1.14
2018-12-12T07:26:03.065Z,1.20
2018-12-12T07:28:32.949Z,1.16
2018-12-12T07:31:03.217Z,1.27
2018-12-12T07:33:33.084Z,1.19
2018-12-12T07:36:03.051Z,1.29
2018-12-12T07:38:33.022Z,1.26
2018-12-12T07:41:02.935Z,1.17
2018-12-12T07:43:32.886Z,1.17
2018-12-12T07:46:02.871Z,1.19
2018-12-12T07:48:32.793Z,1.08
2018-12-12T07:51:02.707Z,1.10
2018-12-12T07:53:32.549Z,1.23
2018-12-12T07:56:02.422Z,1.28
2018-12-12T07:58:32.806Z,1.22
2018-12-12T08:01:02.768Z,1.32
2018-12-12T08:03:32.679Z,1.37
2018-12-12T08:06:02.601Z,1.34
2018-12-12T08:08:32.491Z,1.44
2018-12-12T08:11:02.493Z,1.37
2018-12-12T08:13:32.359Z,1.47
2018-12-12T08:16:02.296Z,1.42
2018-12-12T08:18:32.162Z,1.31
2018-12-12T08:21:02.052Z,1.36
2018-12-12T08:23:32.107Z,1.47
2018-12-12T08:26:02.016Z,1.40
2018-12-12T08:28:31.862Z,1.45
2018-12-12T08:31:01.790Z,1.56
2018-12-12T08:33:32.188Z,1.62
2018-12-12T08:36:02.073Z,1.69
2018-12-12T08:38:31.977Z,1.73
2018-12-12T08:41:01.851Z,1.60
2018-12-12T08:43:31.717Z,1.60
2018-12-12T08:46:01.512Z,1.40
2018-12-12T08:48:32.046Z,1.49
2018-12-12T08:51:01.868Z,1.58
2018-12-12T08:53:31.695Z,1.45
2018-12-12T08:56:02.904Z,1.55
2018-12-12T08:58:33.024Z,1.65
2018-12-12T09:01:03.116Z,1.67
2018-12-12T09:03:32.940Z,1.79
2018-12-12T09:06:02.904Z,1.83
2018-12-12T09:08:32.788Z,1.80
2018-12-12T09:11:02.667Z,1.66
2018-12-12T09:13:32.623Z,1.78
2018-12-12T09:16:02.515Z,1.64
2018-12-12T09:18:32.469Z,1.58
2018-12-12T09:21:02.445Z,1.79
2018-12-12T09:23:32.312Z,1.88
2018-12-12T09:26:02.150Z,1.93
2018-12-12T09:28:32.119Z,1.83
2018-12-12T09:31:01.991Z,2.00
2018-12-12T09:33:31.926Z,2.06
2018-12-12T09:36:01.857Z,1.98
2018-12-12T09:38:31.726Z,2.03
2018-12-12T09:41:01.888Z,2.05
2018-12-12T09:43:32.868Z,2.07
2018-12-12T09:46:03.014Z,1.99
2018-12-12T09:48:33.024Z,2.09
2018-12-12T09:51:07.031Z,2.09
2018-12-12T09:53:35.736Z,2.13
2018-12-12T09:56:05.737Z,2.14
2018-12-12T09:58:35.660Z,2.17
2018-12-12T10:01:06.402Z,2.26
2018-12-12T10:03:36.915Z,2.33
2018-12-12T10:06:06.813Z,2.30
2018-12-12T10:08:36.660Z,2.24
2018-12-12T10:11:06.729Z,2.30
2018-12-12T10:13:36.744Z,2.19
2018-12-12T10:16:06.767Z,2.13
2018-12-12T10:18:36.804Z,2.21
2018-12-12T10:21:06.666Z,2.17
2018-12-12T10:23:36.591Z,2.22
2018-12-12T10:26:06.430Z,2.23
2018-12-12T10:28:36.332Z,2.33
2018-12-12T10:31:06.289Z,2.14
2018-12-12T10:33:37.792Z,2.29
2018-12-12T10:36:08.210Z,2.33
2018-12-12T10:38:38.075Z,2.28
2018-12-12T10:41:07.950Z,2.32
2018-12-12T10:43:37.828Z,2.24
2018-12-12T10:46:07.692Z,2.26
2018-12-12T10:48:37.543Z,2.20
2018-12-12T10:51:07.398Z,2.08
2018-12-12T10:53:37.226Z,1.96
2018-12-12T10:56:07.070Z,2.09
2018-12-12T10:58:38.291Z,2.14
2018-12-12T11:01:14.332Z,2.27
2018-12-12T11:03:44.620Z,2.14
2018-12-12T11:06:14.644Z,2.18
2018-12-12T11:08:44.599Z,2.18
2018-12-12T11:11:14.438Z,2.28
2018-12-12T11:13:44.392Z,2.36
2018-12-12T11:16:14.400Z,2.33
2018-12-12T11:18:44.328Z,2.17
2018-12-12T11:21:14.201Z,2.27
2018-12-12T11:23:44.386Z,2.28
2018-12-12T11:26:14.273Z,2.37
2018-12-12T11:28:44.149Z,2.32
2018-12-12T11:31:14.094Z,2.17
2018-12-12T11:33:50.340Z,2.20
2018-12-12T11:36:15.897Z,2.36
2018-12-12T11:38:45.901Z,2.38
2018-12-12T11:41:15.803Z,2.02
2018-12-12T11:43:45.742Z,2.10
2018-12-12T11:46:16.141Z,2.06
2018-12-12T11:48:46.040Z,1.92
2018-12-12T11:51:15.860Z,1.93
2018-12-12T11:53:45.791Z,2.04
2018-12-12T11:56:15.648Z,2.07
2018-12-12T11:58:45.475Z,2.18
2018-12-12T12:01:15.432Z,2.34
2018-12-12T12:03:45.258Z,2.48
2018-12-12T12:06:15.108Z,2.54
2018-12-12T12:08:44.979Z,2.44
2018-12-12T12:11:14.934Z,2.37
2018-12-12T12:13:44.951Z,2.43
2018-12-12T12:16:14.899Z,2.52
2018-12-12T12:18:44.828Z,2.44
2018-12-12T12:21:14.716Z,2.36
2018-12-12T12:23:45.541Z,2.44
2018-12-12T12:26:15.946Z,2.39
2018-12-12T12:28:45.880Z,2.63
2018-12-12T12:31:16.436Z,2.77
2018-12-12T12:33:46.737Z,2.79
2018-12-12T12:36:16.673Z,2.85
2018-12-12T12:38:47.169Z,2.56
2018-12-12T12:41:17.129Z,2.58
2018-12-12T12:43:47.017Z,2.57
2018-12-12T12:46:17.069Z,2.56
2018-12-12T12:48:47.056Z,2.46
2018-12-12T12:51:16.979Z,2.48
2018-12-12T12:53:46.912Z,2.44
2018-12-12T12:56:16.806Z,2.47
2018-12-12T12:58:47.253Z,2.47
2018-12-12T13:01:17.164Z,2.44
2018-12-12T13:03:47.085Z,2.44
2018-12-12T13:06:16.945Z,2.50
2018-12-12T13:08:46.917Z,2.57
2018-12-12T13:11:16.928Z,2.64
2018-12-12T13:13:46.954Z,2.75
2018-12-12T13:16:16.961Z,2.66
2018-12-12T13:18:46.815Z,2.75
2018-12-12T13:21:16.921Z,2.74
2018-12-12T13:23:46.911Z,2.72
2018-12-12T13:26:17.479Z,2.74
2018-12-12T13:28:47.500Z,2.64
2018-12-12T13:31:17.450Z,2.85
2018-12-12T13:33:47.300Z,2.94
2018-12-12T13:36:17.241Z,2.95
2018-12-12T13:38:47.192Z,2.97
2018-12-12T13:41:17.116Z,2.98
2018-12-12T13:43:47.086Z,2.99
2018-12-12T13:46:17.028Z,3.08
2018-12-12T13:48:46.947Z,3.11
2018-12-12T13:51:16.945Z,3.04
2018-12-12T13:53:46.870Z,3.05
2018-12-12T13:56:16.764Z,3.15
2018-12-12T13:58:46.688Z,3.19
2018-12-12T14:01:16.586Z,3.18
2018-12-12T14:03:46.520Z,3.19
2018-12-12T14:06:16.364Z,3.13
2018-12-12T14:08:46.279Z,3.23
2018-12-12T14:11:16.664Z,3.19
2018-12-12T14:13:46.580Z,3.05
2018-12-12T14:16:16.493Z,3.04
2018-12-12T14:18:46.426Z,3.05
2018-12-12T14:21:16.344Z,2.95
2018-12-12T14:23:46.243Z,2.92
2018-12-12T14:26:16.330Z,3.00
2018-12-12T14:28:46.233Z,2.98
2018-12-12T14:31:16.088Z,2.95
2018-12-12T14:33:46.028Z,2.91
2018-12-12T14:36:16.525Z,2.99
2018-12-12T14:38:46.502Z,2.75
2018-12-12T14:41:16.522Z,2.77
2018-12-12T14:43:46.486Z,2.63
2018-12-12T14:46:16.370Z,2.49
2018-12-12T14:48:46.421Z,2.55
2018-12-12T14:51:16.285Z,2.65
2018-12-12T14:53:46.209Z,2.67
2018-12-12T14:56:16.194Z,2.68
2018-12-12T14:58:46.285Z,2.71
2018-12-12T15:01:16.374Z,2.67
2018-12-12T15:03:46.279Z,2.74
2018-12-12T15:06:16.200Z,2.73
2018-12-12T15:08:46.145Z,2.59
2018-12-12T15:11:16.058Z,2.61
2018-12-12T15:13:46.013Z,2.63
2018-12-12T15:16:15.948Z,2.55
2018-12-12T15:18:45.888Z,2.59
2018-12-12T15:21:15.901Z,2.63
2018-12-12T15:23:45.783Z,2.64
2018-12-12T15:26:15.720Z,2.62
2018-12-12T15:28:45.732Z,2.66
2018-12-12T15:31:15.660Z,2.69
2018-12-12T15:33:45.680Z,2.73
2018-12-12T15:36:15.666Z,2.74
2018-12-12T15:38:45.589Z,2.75
2018-12-12T15:41:15.538Z,2.75
2018-12-12T15:43:45.418Z,2.77
2018-12-12T15:46:15.385Z,2.75
2018-12-12T15:48:45.398Z,2.77
2018-12-12T15:51:15.393Z,2.77
2018-12-12T15:53:45.461Z,2.79
2018-12-12T15:56:15.687Z,2.83
2018-12-12T15:58:45.623Z,2.82
2018-12-12T16:01:15.656Z,2.68
2018-12-12T16:03:45.657Z,2.64
2018-12-12T16:06:15.614Z,2.59
2018-12-12T16:08:45.581Z,2.69
2018-12-12T16:11:15.511Z,2.73
2018-12-12T16:13:45.499Z,2.75
2018-12-12T16:16:15.413Z,2.79
2018-12-12T16:18:45.341Z,2.79
2018-12-12T16:21:15.360Z,2.80
2018-12-12T16:23:45.229Z,2.86
2018-12-12T16:26:15.187Z,2.85
2018-12-12T16:28:46.063Z,2.78
2018-12-12T16:31:16.330Z,2.73
2018-12-12T16:33:46.245Z,2.71
2018-12-12T16:36:16.211Z,2.58
2018-12-12T16:38:46.496Z,2.62
2018-12-12T16:41:16.418Z,2.51
2018-12-12T16:43:46.767Z,2.62
2018-12-12T16:46:16.776Z,2.67
2018-12-12T16:48:46.762Z,2.71
2018-12-12T16:51:16.776Z,2.74
2018-12-12T16:53:46.681Z,2.67
2018-12-12T16:56:16.728Z,2.66
2018-12-12T16:58:46.669Z,2.74
2018-12-12T17:01:16.699Z,2.79
2018-12-12T17:03:46.711Z,2.78
2018-12-12T17:06:16.668Z,2.80
2018-12-12T17:08:46.544Z,2.82
2018-12-12T17:11:17.197Z,2.80
2018-12-12T17:13:47.097Z,2.78
2018-12-12T17:16:17.137Z,2.84
2018-12-12T17:18:47.442Z,2.89
2018-12-12T17:21:17.623Z,2.89
2018-12-12T17:23:47.631Z,2.93
2018-12-12T17:26:17.673Z,2.95
2018-12-12T17:28:47.672Z,2.89
2018-12-12T17:31:17.553Z,2.81
2018-12-12T17:33:47.460Z,2.77
2018-12-12T17:36:17.942Z,2.86
2018-12-12T17:38:47.901Z,2.90
2018-12-12T17:41:17.840Z,2.84
2018-12-12T17:43:47.830Z,2.86
2018-12-12T17:46:17.749Z,2.87
2018-12-12T17:48:48.487Z,2.92
2018-12-12T17:51:18.479Z,2.93
2018-12-12T17:53:48.368Z,2.95
2018-12-12T17:56:18.686Z,2.94
2018-12-12T17:58:48.598Z,2.95
2018-12-12T18:01:18.470Z,2.93
2018-12-12T18:03:49.397Z,2.94
2018-12-12T18:06:19.679Z,2.95
2018-12-12T18:08:49.997Z,2.94
2018-12-12T18:11:20.492Z,2.94
2018-12-12T18:13:50.483Z,2.93
2018-12-12T18:16:20.425Z,2.96
2018-12-12T18:18:50.421Z,2.93
2018-12-12T18:21:20.459Z,2.89
2018-12-12T18:23:50.330Z,2.82
2018-12-12T18:26:20.206Z,2.85
2018-12-12T18:28:50.174Z,2.77
2018-12-12T18:31:20.310Z,2.82
2018-12-12T18:33:50.200Z,2.85
2018-12-12T18:36:20.086Z,2.85
2018-12-12T18:38:50.090Z,2.82
2018-12-12T18:41:20.042Z,2.86
2018-12-12T18:43:49.972Z,2.85
2018-12-12T18:46:19.882Z,2.89
2018-12-12T18:48:49.731Z,2.91
2018-12-12T18:51:19.798Z,2.88
2018-12-12T18:53:49.696Z,2.78
2018-12-12T18:56:19.595Z,2.76
2018-12-12T18:58:49.472Z,2.77
2018-12-12T19:01:20.094Z,2.76
2018-12-12T19:03:50.063Z,2.69
2018-12-12T19:06:20.005Z,2.70
2018-12-12T19:08:50.757Z,2.74
2018-12-12T19:11:20.596Z,2.77
2018-12-12T19:13:50.494Z,2.78
2018-12-12T19:16:20.611Z,2.77
2018-12-12T19:18:50.670Z,2.82
2018-12-12T19:21:20.593Z,2.79
2018-12-12T19:23:50.570Z,2.74
2018-12-12T19:26:20.418Z,2.79
2018-12-12T19:28:50.542Z,2.73
2018-12-12T19:31:20.394Z,2.76
2018-12-12T19:33:50.483Z,2.76
2018-12-12T19:36:20.557Z,2.75
2018-12-12T19:38:50.930Z,2.72
2018-12-12T19:41:21.311Z,2.71
2018-12-12T19:43:51.569Z,2.68
2018-12-12T19:46:21.788Z,2.54
2018-12-12T19:48:51.797Z,2.45
2018-12-12T19:51:21.960Z,2.46
2018-12-12T19:53:53.556Z,2.54
2018-12-12T19:56:24.074Z,2.54
2018-12-12T19:58:54.138Z,2.58
2018-12-12T20:01:24.812Z,2.62
2018-12-12T20:03:54.868Z,2.63
2018-12-12T20:06:24.911Z,2.64
2018-12-12T20:08:54.948Z,2.63
2018-12-12T20:11:25.150Z,2.58
2018-12-12T20:13:55.320Z,2.61
2018-12-12T20:16:25.891Z,2.60
2018-12-12T20:18:55.894Z,2.63
2018-12-12T20:21:26.503Z,2.64
2018-12-12T20:23:56.439Z,2.65
2018-12-12T20:26:26.428Z,2.63
2018-12-12T20:28:56.340Z,2.65
2018-12-12T20:31:27.341Z,2.63
2018-12-12T20:33:57.338Z,2.63
2018-12-12T20:36:27.453Z,2.60
2018-12-12T20:38:57.574Z,2.58
2018-12-12T20:41:27.701Z,2.46
2018-12-12T20:43:58.344Z,2.47
2018-12-12T20:46:29.333Z,2.41
2018-12-12T20:48:59.822Z,2.32
2018-12-12T20:51:29.755Z,2.25
2018-12-12T20:54:00.224Z,2.21
2018-12-12T20:56:30.249Z,2.21
2018-12-12T20:59:00.405Z,2.20
2018-12-12T21:01:30.430Z,2.18
2018-12-12T21:04:00.796Z,2.14
2018-12-12T21:06:31.221Z,2.11
2018-12-12T21:09:01.977Z,2.05
2018-12-12T21:11:32.647Z,2.01
2018-12-12T21:14:03.448Z,1.96
2018-12-12T21:16:33.574Z,1.94
2018-12-12T21:19:03.958Z,1.90
2018-12-12T21:21:34.141Z,1.86
2018-12-12T21:24:04.259Z,1.87
2018-12-12T21:26:34.506Z,1.84
2018-12-12T21:29:05.264Z,1.84
2018-12-12T21:31:36.139Z,1.82
2018-12-12T21:34:07.136Z,1.81
2018-12-12T21:36:38.019Z,1.76
2018-12-12T21:39:07.995Z,1.74
2018-12-12T21:41:38.056Z,1.72
2018-12-12T21:44:08.351Z,1.70
2018-12-12T21:46:39.154Z,1.69
2018-12-12T21:49:09.941Z,1.69
2018-12-12T21:51:40.864Z,1.71
2018-12-12T21:54:10.906Z,1.73
2018-12-12T21:56:41.217Z,1.75
2018-12-12T21:59:11.583Z,1.77
2018-12-12T22:01:41.779Z,1.83
2018-12-12T22:04:11.885Z,1.92
2018-12-12T22:06:42.602Z,1.94
2018-12-12T22:09:12.666Z,1.93
2018-12-12T22:11:43.626Z,1.90
2018-12-12T22:14:14.010Z,1.94
2018-12-12T22:16:43.925Z,1.94
2018-12-12T22:19:14.057Z,1.97
2018-12-12T22:21:44.534Z,1.94
2018-12-12T22:24:14.499Z,1.94
2018-12-12T22:26:44.522Z,1.98
2018-12-12T22:29:14.526Z,2.00
2018-12-12T22:31:44.565Z,2.03
2018-12-12T22:34:14.569Z,2.04
2018-12-12T22:36:44.607Z,2.03
2018-12-12T22:39:14.539Z,2.06
2018-12-12T22:41:44.791Z,2.02
2018-12-12T22:44:15.167Z,2.08
2018-12-12T22:46:45.404Z,2.11
2018-12-12T22:49:15.397Z,2.13
2018-12-12T22:51:46.084Z,2.12
2018-12-12T22:54:16.124Z,2.14
2018-12-12T22:56:46.179Z,2.14
2018-12-12T22:59:16.099Z,2.14
2018-12-12T23:01:45.992Z,2.16
2018-12-12T23:04:15.892Z,2.13
2018-12-12T23:06:45.830Z,2.14
2018-12-12T23:09:15.804Z,2.12
2018-12-12T23:11:45.727Z,2.15
2018-12-12T23:14:15.644Z,2.18
2018-12-12T23:16:45.576Z,2.10
2018-12-12T23:20:19.016Z,2.21
2018-12-12T23:22:48.862Z,2.16
2018-12-12T23:25:18.772Z,2.18
2018-12-12T23:27:48.748Z,2.15
2018-12-12T23:30:18.739Z,2.17
2018-12-12T23:32:48.600Z,2.00
2018-12-12T23:35:18.519Z,2.04
2018-12-12T23:37:49.018Z,2.09
2018-12-12T23:40:18.889Z,2.17
2018-12-12T23:42:48.757Z,2.15
2018-12-12T23:45:19.245Z,2.20
2018-12-12T23:47:49.260Z,2.24
2018-12-12T23:50:19.181Z,2.28
2018-12-12T23:52:49.087Z,2.23
2018-12-12T23:55:19.001Z,2.27
2018-12-12T23:57:48.824Z,2.24
